createdAt,value
2019-06-08T00:00:04.794Z,11.40
2019-06-08T00:01:04.797Z,11.40
2019-06-08T00:02:04.788Z,11.60
2019-06-08T00:03:04.799Z,11.40
2019-06-08T00:04:04.766Z,11.50
2019-06-08T00:05:04.819Z,10.80
2019-06-08T00:06:04.735Z,10.70
2019-06-08T00:07:04.736Z,11.20
2019-06-08T00:08:04.749Z,11.60
2019-06-08T00:09:04.703Z,10.50
2019-06-08T00:10:04.703Z,11.20
2019-06-08T00:11:04.699Z,10.80
2019-06-08T00:12:04.665Z,11.10
2019-06-08T00:13:04.693Z,11.20
2019-06-08T00:14:04.663Z,11.40
2019-06-08T00:15:04.650Z,11.30
2019-06-08T00:16:04.635Z,11.20
2019-06-08T00:17:04.619Z,11.90
2019-06-08T00:18:04.634Z,11.90
2019-06-08T00:19:04.586Z,11.20
2019-06-08T00:20:04.582Z,11.70
2019-06-08T00:21:04.599Z,11.50
2019-06-08T00:22:04.574Z,12.50
2019-06-08T00:23:04.581Z,12.00
2019-06-08T00:24:04.552Z,11.60
2019-06-08T00:25:04.542Z,11.90
2019-06-08T00:26:04.518Z,11.40
2019-06-08T00:27:04.528Z,11.30
2019-06-08T00:28:04.536Z,11.30
2019-06-08T00:29:04.516Z,12.10
2019-06-08T00:30:04.467Z,11.90
2019-06-08T00:31:04.464Z,12.00
2019-06-08T00:32:04.484Z,11.80
2019-06-08T00:33:04.490Z,12.30
2019-06-08T00:34:04.431Z,12.20
2019-06-08T00:35:04.418Z,12.00
2019-06-08T00:36:04.406Z,12.20
2019-06-08T00:37:04.388Z,12.30
2019-06-08T00:38:04.422Z,11.80
2019-06-08T00:39:04.366Z,12.00
2019-06-08T00:40:04.360Z,11.70
2019-06-08T00:41:04.356Z,12.00
2019-06-08T00:42:04.332Z,12.40
2019-06-08T00:43:04.348Z,13.10
2019-06-08T00:44:04.338Z,12.00
2019-06-08T00:45:04.318Z,12.50
2019-06-08T00:46:04.288Z,12.80
2019-06-08T00:47:04.276Z,12.30
2019-06-08T00:48:04.300Z,13.40
2019-06-08T00:49:04.258Z,12.20
2019-06-08T00:50:04.250Z,11.80
2019-06-08T00:51:04.244Z,12.10
2019-06-08T00:52:04.229Z,12.90
2019-06-08T00:53:04.230Z,12.60
2019-06-08T00:54:04.198Z,13.10
2019-06-08T00:55:04.189Z,11.90
2019-06-08T00:56:04.184Z,12.30
2019-06-08T00:57:04.170Z,12.40
2019-06-08T00:58:04.209Z,13.50
2019-06-08T00:59:04.147Z,12.50
2019-06-08T01:00:10.173Z,12.70
2019-06-08T01:01:05.121Z,12.70
2019-06-08T01:02:04.106Z,12.70
2019-06-08T01:03:04.100Z,12.60
2019-06-08T01:04:04.105Z,12.80
2019-06-08T01:05:04.076Z,12.60
2019-06-08T01:06:04.079Z,13.10
2019-06-08T01:07:04.080Z,13.00
2019-06-08T01:08:04.249Z,13.10
2019-06-08T01:09:04.051Z,13.20
2019-06-08T01:10:04.043Z,12.70
2019-06-08T01:11:04.012Z,12.70
2019-06-08T01:12:04.005Z,12.10
2019-06-08T01:13:04.006Z,13.20
2019-06-08T01:14:04.001Z,13.40
2019-06-08T01:15:03.988Z,13.30
2019-06-08T01:16:03.961Z,13.00
2019-06-08T01:17:03.961Z,12.90
2019-06-08T01:18:04.347Z,12.80
2019-06-08T01:19:03.943Z,13.10
2019-06-08T01:20:03.916Z,12.40
2019-06-08T01:21:03.897Z,13.20
2019-06-08T01:22:03.921Z,13.00
2019-06-08T01:23:03.882Z,13.60
2019-06-08T01:24:03.880Z,13.10
2019-06-08T01:25:03.867Z,13.30
2019-06-08T01:26:03.843Z,12.90
2019-06-08T01:27:03.827Z,13.60
2019-06-08T01:28:03.830Z,13.10
2019-06-08T01:29:03.840Z,13.40
2019-06-08T01:30:03.806Z,13.30
2019-06-08T01:31:03.785Z,13.00
2019-06-08T01:32:03.776Z,13.80
2019-06-08T01:33:03.800Z,12.90
2019-06-08T01:34:03.776Z,14.20
2019-06-08T01:35:03.825Z,13.70
2019-06-08T01:36:03.739Z,13.90
2019-06-08T01:37:03.724Z,13.50
2019-06-08T01:38:03.706Z,13.70
2019-06-08T01:39:03.702Z,14.00
2019-06-08T01:40:03.711Z,13.40
2019-06-08T01:41:03.675Z,14.20
2019-06-08T01:42:03.675Z,13.80
2019-06-08T01:43:03.653Z,14.10
2019-06-08T01:44:03.638Z,13.90
2019-06-08T01:45:03.825Z,14.50
2019-06-08T01:46:03.618Z,13.80
2019-06-08T01:47:03.614Z,14.10
2019-06-08T01:48:18.737Z,14.10
2019-06-08T01:49:04.585Z,14.10
2019-06-08T01:50:03.592Z,14.10
2019-06-08T01:51:03.664Z,15.40
2019-06-08T01:52:03.552Z,14.30
2019-06-08T01:53:04.422Z,15.00
2019-06-08T01:54:03.535Z,14.90
2019-06-08T01:55:03.543Z,14.80
2019-06-08T01:56:03.511Z,15.80
2019-06-08T01:57:03.496Z,14.90
2019-06-08T01:58:03.476Z,14.80
2019-06-08T01:59:03.476Z,14.80
2019-06-08T02:00:28.736Z,13.90
2019-06-08T02:01:04.471Z,13.20
2019-06-08T02:02:03.468Z,12.90
2019-06-08T02:03:03.443Z,12.70
2019-06-08T02:04:03.420Z,12.60
2019-06-08T02:05:03.406Z,11.00
2019-06-08T02:06:03.449Z,11.20
2019-06-08T02:07:03.390Z,10.80
2019-06-08T02:08:03.366Z,9.40
2019-06-08T02:09:03.370Z,8.20
2019-06-08T02:10:03.352Z,5.80
2019-06-08T02:11:03.355Z,5.50
2019-06-08T02:12:03.328Z,5.10
2019-06-08T02:13:03.318Z,4.00
2019-06-08T02:14:03.307Z,3.10
2019-06-08T02:15:03.302Z,3.00
2019-06-08T02:16:03.309Z,2.70
2019-06-08T02:17:03.270Z,2.30
2019-06-08T02:18:03.254Z,2.50
2019-06-08T02:19:03.365Z,2.20
2019-06-08T02:20:03.241Z,2.10
2019-06-08T02:21:03.253Z,2.50
2019-06-08T02:22:03.245Z,2.40
2019-06-08T02:23:03.220Z,2.20
2019-06-08T02:24:03.198Z,2.20
2019-06-08T02:25:03.176Z,1.70
2019-06-08T02:26:03.195Z,1.80
2019-06-08T02:27:03.160Z,1.60
2019-06-08T02:28:03.286Z,1.60
2019-06-08T02:29:03.137Z,1.80
2019-06-08T02:30:03.125Z,1.60
2019-06-08T02:31:03.131Z,1.90
2019-06-08T02:32:03.098Z,1.60
2019-06-08T02:33:03.094Z,1.50
2019-06-08T02:34:03.084Z,1.50
2019-06-08T02:35:03.091Z,1.70
2019-06-08T02:36:03.086Z,1.60
2019-06-08T02:37:03.056Z,1.50
2019-06-08T02:38:03.023Z,1.50
2019-06-08T02:39:03.024Z,1.60
2019-06-08T02:40:03.012Z,1.80
2019-06-08T02:41:03.049Z,1.90
2019-06-08T02:42:02.986Z,1.60
2019-06-08T02:43:02.975Z,1.70
2019-06-08T02:44:02.971Z,1.80
2019-06-08T02:45:02.964Z,1.70
2019-06-08T02:46:02.993Z,1.70
2019-06-08T02:47:02.937Z,1.80
2019-06-08T02:48:02.935Z,1.70
2019-06-08T02:49:04.725Z,1.80
2019-06-08T02:50:02.907Z,1.90
2019-06-08T02:51:02.909Z,1.80
2019-06-08T02:52:02.894Z,1.70
2019-06-08T02:53:02.865Z,1.70
2019-06-08T02:54:02.866Z,1.70
2019-06-08T02:55:02.861Z,1.90
2019-06-08T02:56:02.834Z,1.50
2019-06-08T02:57:02.854Z,1.80
2019-06-08T02:58:02.812Z,2.10
2019-06-08T02:59:02.801Z,1.70
2019-06-08T03:00:02.793Z,1.70
2019-06-08T03:01:02.777Z,1.70
2019-06-08T03:02:02.794Z,1.60
2019-06-08T03:03:02.757Z,1.80
2019-06-08T03:04:02.746Z,1.70
2019-06-08T03:05:02.736Z,1.60
2019-06-08T03:06:02.723Z,1.50
2019-06-08T03:07:02.729Z,1.70
2019-06-08T03:08:02.697Z,1.70
2019-06-08T03:09:02.679Z,1.70
2019-06-08T03:10:02.679Z,1.70
2019-06-08T03:11:02.673Z,1.70
2019-06-08T03:12:02.691Z,1.60
2019-06-08T03:13:02.647Z,1.80
2019-06-08T03:14:02.629Z,1.80
2019-06-08T03:15:02.630Z,1.60
2019-06-08T03:16:02.618Z,1.60
2019-06-08T03:17:02.633Z,1.70
2019-06-08T03:18:02.593Z,1.90
2019-06-08T03:19:20.173Z,1.90
2019-06-08T03:20:03.564Z,1.90
2019-06-08T03:21:02.589Z,1.70
2019-06-08T03:22:02.566Z,1.80
2019-06-08T03:23:02.531Z,1.90
2019-06-08T03:24:02.509Z,1.70
2019-06-08T03:25:02.520Z,1.70
2019-06-08T03:26:02.504Z,1.70
2019-06-08T03:27:02.503Z,1.50
2019-06-08T03:28:02.466Z,1.60
2019-06-08T03:29:02.461Z,1.70
2019-06-08T03:30:14.971Z,1.60
2019-06-08T03:31:03.471Z,1.80
2019-06-08T03:32:02.456Z,1.70
2019-06-08T03:33:02.413Z,1.60
2019-06-08T03:34:02.411Z,2.10
2019-06-08T03:35:02.397Z,1.70
2019-06-08T03:36:02.407Z,1.60
2019-06-08T03:37:02.434Z,1.50
2019-06-08T03:38:02.367Z,1.30
2019-06-08T03:39:02.349Z,1.30
2019-06-08T03:40:02.340Z,1.80
2019-06-08T03:41:02.325Z,1.70
2019-06-08T03:42:02.354Z,1.60
2019-06-08T03:43:02.335Z,1.60
2019-06-08T03:44:02.293Z,1.50
2019-06-08T03:45:02.288Z,1.50
2019-06-08T03:46:02.279Z,1.80
2019-06-08T03:47:02.287Z,1.50
2019-06-08T03:48:02.269Z,1.60
2019-06-08T03:49:02.250Z,1.70
2019-06-08T03:50:02.242Z,1.70
2019-06-08T03:51:02.218Z,1.70
2019-06-08T03:52:02.199Z,1.70
2019-06-08T03:53:02.216Z,1.60
2019-06-08T03:54:02.187Z,1.40
2019-06-08T03:55:02.189Z,1.60
2019-06-08T03:56:02.163Z,1.40
2019-06-08T03:57:02.161Z,1.70
2019-06-08T03:58:02.159Z,1.60
2019-06-08T03:59:02.131Z,1.50
2019-06-08T04:00:02.144Z,1.70
2019-06-08T04:01:02.104Z,1.60
2019-06-08T04:02:02.925Z,1.30
2019-06-08T04:03:02.100Z,1.40
2019-06-08T04:04:02.068Z,1.40
2019-06-08T04:05:02.056Z,1.50
2019-06-08T04:06:02.054Z,1.30
2019-06-08T04:07:02.065Z,1.40
2019-06-08T04:08:02.049Z,1.30
2019-06-08T04:09:02.029Z,1.40
2019-06-08T04:10:02.009Z,1.20
2019-06-08T04:11:01.995Z,1.30
2019-06-08T04:12:01.975Z,1.20
2019-06-08T04:13:01.985Z,1.40
2019-06-08T04:14:01.965Z,1.30
2019-06-08T04:15:01.958Z,1.60
2019-06-08T04:16:01.950Z,1.30
2019-06-08T04:17:01.921Z,1.40
2019-06-08T04:18:01.929Z,1.20
2019-06-08T04:19:01.893Z,1.20
2019-06-08T04:20:10.472Z,1.40
2019-06-08T04:21:02.875Z,1.40
2019-06-08T04:22:01.863Z,1.30
2019-06-08T04:23:01.864Z,1.40
2019-06-08T04:24:01.838Z,1.40
2019-06-08T04:25:01.845Z,1.10
2019-06-08T04:26:01.823Z,1.20
2019-06-08T04:27:01.824Z,1.00
2019-06-08T04:28:01.825Z,1.00
2019-06-08T04:29:01.795Z,1.20
2019-06-08T04:30:01.784Z,1.00
2019-06-08T04:31:01.780Z,1.40
2019-06-08T04:32:01.763Z,1.30
2019-06-08T04:33:01.772Z,1.00
2019-06-08T04:34:01.732Z,1.20
2019-06-08T04:35:01.799Z,1.00
2019-06-08T04:36:01.711Z,1.20
2019-06-08T04:37:01.724Z,1.30
2019-06-08T04:38:01.716Z,1.10
2019-06-08T04:39:01.681Z,1.20
2019-06-08T04:40:01.679Z,1.20
2019-06-08T04:41:01.665Z,1.10
2019-06-08T04:42:01.644Z,1.30
2019-06-08T04:43:01.656Z,1.10
2019-06-08T04:44:01.627Z,1.10
2019-06-08T04:45:01.618Z,1.20
2019-06-08T04:46:01.603Z,1.10
2019-06-08T04:47:01.590Z,1.10
2019-06-08T04:48:01.644Z,1.50
2019-06-08T04:49:01.558Z,1.20
2019-06-08T04:50:20.318Z,1.40
2019-06-08T04:51:02.550Z,1.00
2019-06-08T04:52:01.532Z,1.10
2019-06-08T04:53:01.597Z,1.30
2019-06-08T04:54:01.516Z,1.10
2019-06-08T04:55:01.498Z,1.20
2019-06-08T04:56:01.534Z,1.00
2019-06-08T04:57:01.478Z,1.40
2019-06-08T04:58:01.491Z,1.00
2019-06-08T04:59:01.445Z,1.20
2019-06-08T05:00:11.113Z,1.10
2019-06-08T05:01:02.463Z,1.10
2019-06-08T05:02:01.430Z,1.10
2019-06-08T05:03:01.466Z,1.10
2019-06-08T05:04:01.397Z,1.20
2019-06-08T05:05:01.379Z,1.10
2019-06-08T05:06:01.385Z,1.10
2019-06-08T05:07:01.432Z,1.10
2019-06-08T05:08:01.385Z,1.30
2019-06-08T05:09:01.341Z,1.30
2019-06-08T05:10:01.334Z,1.30
2019-06-08T05:11:01.320Z,1.20
2019-06-08T05:12:01.305Z,1.20
2019-06-08T05:13:01.323Z,1.20
2019-06-08T05:14:01.278Z,1.10
2019-06-08T05:15:01.271Z,1.00
2019-06-08T05:16:01.271Z,1.10
2019-06-08T05:17:01.250Z,1.00
2019-06-08T05:18:01.322Z,1.10
2019-06-08T05:19:01.228Z,1.20
2019-06-08T05:20:01.205Z,1.10
2019-06-08T05:21:01.201Z,1.10
2019-06-08T05:22:01.189Z,0.80
2019-06-08T05:23:01.220Z,1.00
2019-06-08T05:24:01.175Z,1.00
2019-06-08T05:25:01.178Z,1.10
2019-06-08T05:26:01.195Z,0.90
2019-06-08T05:27:01.133Z,0.90
2019-06-08T05:28:01.154Z,0.90
2019-06-08T05:29:01.226Z,0.90
2019-06-08T05:30:08.087Z,0.90
2019-06-08T05:31:02.111Z,0.90
2019-06-08T05:32:01.089Z,0.90
2019-06-08T05:33:01.086Z,0.90
2019-06-08T05:34:01.079Z,1.00
2019-06-08T05:35:01.049Z,1.00
2019-06-08T05:36:01.037Z,1.00
2019-06-08T05:37:01.021Z,1.00
2019-06-08T05:38:01.011Z,1.10
2019-06-08T05:39:01.034Z,1.00
2019-06-08T05:40:00.993Z,0.90
2019-06-08T05:41:00.977Z,1.00
2019-06-08T05:42:00.967Z,1.00
2019-06-08T05:43:00.959Z,1.20
2019-06-08T05:44:00.959Z,1.00
2019-06-08T05:45:00.953Z,1.00
2019-06-08T05:46:00.935Z,1.10
2019-06-08T05:47:00.910Z,1.00
2019-06-08T05:48:00.924Z,1.10
2019-06-08T05:49:00.928Z,1.00
2019-06-08T05:50:00.885Z,0.90
2019-06-08T05:51:04.091Z,1.30
2019-06-08T05:52:00.865Z,1.20
2019-06-08T05:53:00.834Z,1.10
2019-06-08T05:54:02.956Z,0.90
2019-06-08T05:55:00.824Z,1.20
2019-06-08T05:56:00.808Z,1.10
2019-06-08T05:57:00.817Z,1.10
2019-06-08T05:58:00.824Z,1.00
2019-06-08T05:59:00.811Z,1.00
2019-06-08T06:00:08.424Z,1.10
2019-06-08T06:01:01.762Z,1.00
2019-06-08T06:02:00.739Z,1.10
2019-06-08T06:03:00.729Z,1.40
2019-06-08T06:04:00.735Z,1.20
2019-06-08T06:05:00.706Z,1.10
2019-06-08T06:06:00.699Z,1.10
2019-06-08T06:07:00.688Z,1.30
2019-06-08T06:08:00.673Z,1.00
2019-06-08T06:09:00.680Z,1.00
2019-06-08T06:10:00.668Z,1.30
2019-06-08T06:11:00.647Z,1.20
2019-06-08T06:12:00.626Z,1.10
2019-06-08T06:13:00.662Z,1.10
2019-06-08T06:14:00.608Z,1.20
2019-06-08T06:15:00.615Z,1.10
2019-06-08T06:16:00.584Z,1.10
2019-06-08T06:17:00.578Z,0.90
2019-06-08T06:18:00.566Z,1.20
2019-06-08T06:19:00.555Z,1.30
2019-06-08T06:20:00.570Z,0.90
2019-06-08T06:21:10.375Z,1.30
2019-06-08T06:22:01.512Z,1.20
2019-06-08T06:23:00.506Z,1.20
2019-06-08T06:24:00.493Z,1.30
2019-06-08T06:25:00.503Z,1.30
2019-06-08T06:26:00.464Z,0.90
2019-06-08T06:27:00.486Z,0.90
2019-06-08T06:28:00.463Z,1.10
2019-06-08T06:29:00.450Z,0.90
2019-06-08T06:30:00.454Z,1.20
2019-06-08T06:31:00.433Z,1.20
2019-06-08T06:32:00.420Z,0.90
2019-06-08T06:33:00.458Z,1.10
2019-06-08T06:34:00.414Z,1.10
2019-06-08T06:35:00.396Z,1.20
2019-06-08T06:36:00.363Z,1.40
2019-06-08T06:37:00.368Z,1.20
2019-06-08T06:38:00.338Z,1.30
2019-06-08T06:39:00.330Z,1.20
2019-06-08T06:40:00.345Z,1.30
2019-06-08T06:41:00.299Z,1.10
2019-06-08T06:42:00.297Z,1.30
2019-06-08T06:43:00.304Z,1.40
2019-06-08T06:44:00.286Z,1.10
2019-06-08T06:45:00.261Z,1.10
2019-06-08T06:46:00.281Z,1.50
2019-06-08T06:47:00.234Z,0.90
2019-06-08T06:48:00.247Z,1.10
2019-06-08T06:49:00.215Z,1.20
2019-06-08T06:50:00.206Z,1.00
2019-06-08T06:51:00.222Z,1.10
2019-06-08T06:52:00.188Z,0.80
2019-06-08T06:53:00.171Z,1.30
2019-06-08T06:54:00.152Z,1.10
2019-06-08T06:55:00.147Z,0.70
2019-06-08T06:56:00.152Z,0.90
2019-06-08T06:57:00.164Z,0.80
2019-06-08T06:58:00.108Z,0.80
2019-06-08T06:59:00.106Z,1.00
2019-06-08T07:00:00.084Z,0.90
2019-06-08T07:01:00.136Z,1.00
2019-06-08T07:02:00.072Z,0.90
2019-06-08T07:03:00.067Z,0.80
2019-06-08T07:04:00.045Z,0.90
2019-06-08T07:05:00.046Z,0.70
2019-06-08T07:06:00.039Z,0.80
2019-06-08T07:07:00.018Z,0.90
2019-06-08T07:07:59.998Z,0.90
2019-06-08T07:08:59.989Z,0.90
2019-06-08T07:09:59.990Z,0.70
2019-06-08T07:10:59.993Z,1.00
2019-06-08T07:11:59.953Z,1.40
2019-06-08T07:12:59.955Z,1.30
2019-06-08T07:13:59.937Z,1.30
2019-06-08T07:14:59.924Z,1.20
2019-06-08T07:16:16.885Z,1.10
2019-06-08T07:17:00.899Z,0.90
2019-06-08T07:17:59.888Z,0.80
2019-06-08T07:18:59.882Z,0.90
2019-06-08T07:19:59.870Z,0.70
2019-06-08T07:20:59.889Z,0.80
2019-06-08T07:21:59.847Z,0.90
2019-06-08T07:22:59.827Z,0.80
2019-06-08T07:23:59.819Z,1.00
2019-06-08T07:24:59.797Z,0.80
2019-06-08T07:25:59.821Z,0.80
2019-06-08T07:26:59.793Z,0.70
2019-06-08T07:27:59.770Z,1.00
2019-06-08T07:28:59.761Z,1.40
2019-06-08T07:29:59.763Z,0.80
2019-06-08T07:30:59.775Z,1.10
2019-06-08T07:31:59.724Z,0.80
2019-06-08T07:32:59.756Z,0.80
2019-06-08T07:33:59.996Z,0.80
2019-06-08T07:34:59.700Z,0.70
2019-06-08T07:35:59.904Z,0.90
2019-06-08T07:36:59.693Z,0.80
2019-06-08T07:37:59.872Z,1.00
2019-06-08T07:38:59.724Z,0.70
2019-06-08T07:40:00.151Z,0.80
2019-06-08T07:41:01.654Z,0.70
2019-06-08T07:42:00.010Z,0.80
2019-06-08T07:43:00.429Z,0.90
2019-06-08T07:43:59.593Z,0.70
2019-06-08T07:45:00.401Z,1.00
2019-06-08T07:45:59.579Z,0.90
2019-06-08T07:47:00.103Z,0.80
2019-06-08T07:48:00.587Z,0.60
2019-06-08T07:48:59.548Z,0.70
2019-06-08T07:49:59.638Z,1.00
2019-06-08T07:50:59.513Z,0.70
2019-06-08T07:52:09.743Z,0.80
2019-06-08T07:53:00.496Z,1.50
2019-06-08T07:53:59.920Z,0.70
2019-06-08T07:54:59.485Z,0.90
2019-06-08T07:55:59.851Z,0.80
2019-06-08T07:56:59.478Z,0.90
2019-06-08T07:58:00.358Z,0.90
2019-06-08T07:58:59.426Z,0.80
2019-06-08T08:00:00.187Z,0.80
2019-06-08T08:01:07.520Z,0.70
2019-06-08T08:02:00.422Z,0.60
2019-06-08T08:02:59.388Z,0.90
2019-06-08T08:03:59.377Z,1.00
2019-06-08T08:04:59.367Z,1.00
2019-06-08T08:06:00.008Z,1.20
2019-06-08T08:06:59.363Z,1.10
2019-06-08T08:07:59.324Z,1.20
2019-06-08T08:08:59.326Z,1.00
2019-06-08T08:09:59.320Z,0.80
2019-06-08T08:11:00.043Z,1.20
2019-06-08T08:11:59.681Z,1.00
2019-06-08T08:12:59.285Z,1.10
2019-06-08T08:13:59.283Z,1.00
2019-06-08T08:14:59.739Z,1.20
2019-06-08T08:16:00.719Z,1.10
2019-06-08T08:16:59.312Z,1.30
2019-06-08T08:17:59.646Z,0.80
2019-06-08T08:18:59.726Z,1.10
2019-06-08T08:19:59.415Z,1.00
2019-06-08T08:21:09.272Z,0.90
2019-06-08T08:22:10.710Z,1.20
2019-06-08T08:23:05.558Z,1.00
2019-06-08T08:24:01.582Z,1.10
2019-06-08T08:25:04.216Z,1.00
2019-06-08T08:26:01.787Z,1.10
2019-06-08T08:27:02.062Z,1.10
2019-06-08T08:28:00.667Z,1.20
2019-06-08T08:29:02.539Z,1.00
2019-06-08T08:30:01.713Z,1.00
2019-06-08T08:31:01.693Z,1.00
2019-06-08T08:32:01.771Z,1.10
2019-06-08T08:33:01.659Z,1.10
2019-06-08T08:34:05.322Z,1.50
2019-06-08T08:35:02.650Z,1.30
2019-06-08T08:36:01.724Z,0.90
2019-06-08T08:37:06.012Z,1.00
2019-06-08T08:38:03.901Z,1.00
2019-06-08T08:39:01.012Z,1.00
2019-06-08T08:40:01.363Z,0.90
2019-06-08T08:41:06.228Z,1.00
2019-06-08T08:42:04.790Z,1.20
2019-06-08T08:43:01.542Z,1.20
2019-06-08T08:44:04.203Z,1.30
2019-06-08T08:45:05.023Z,1.10
2019-06-08T08:46:01.822Z,0.90
2019-06-08T08:47:01.374Z,1.00
2019-06-08T08:48:14.407Z,0.90
2019-06-08T08:49:08.925Z,1.00
2019-06-08T08:50:01.868Z,1.00
2019-06-08T08:51:01.435Z,1.30
2019-06-08T08:52:00.221Z,1.10
2019-06-08T08:53:00.625Z,1.00
2019-06-08T08:54:03.938Z,0.90
2019-06-08T08:55:00.926Z,1.10
2019-06-08T08:56:02.097Z,1.20
2019-06-08T08:57:03.384Z,1.00
2019-06-08T08:58:01.777Z,1.30
2019-06-08T08:59:00.907Z,1.00
2019-06-08T09:00:03.494Z,1.00
2019-06-08T09:01:02.107Z,0.80
2019-06-08T09:02:01.053Z,0.90
2019-06-08T09:03:13.142Z,0.90
2019-06-08T09:04:03.295Z,0.90
2019-06-08T09:05:03.066Z,1.10
2019-06-08T09:06:01.510Z,1.70
2019-06-08T09:07:05.227Z,1.10
2019-06-08T09:08:02.125Z,0.90
2019-06-08T09:09:01.666Z,1.30
2019-06-08T09:10:01.823Z,0.90
2019-06-08T09:11:01.733Z,1.10
2019-06-08T09:12:02.287Z,1.10
2019-06-08T09:13:02.934Z,0.90
2019-06-08T09:14:05.196Z,0.90
2019-06-08T09:15:01.852Z,0.80
2019-06-08T09:16:00.867Z,0.80
2019-06-08T09:17:01.741Z,1.10
2019-06-08T09:18:00.966Z,0.80
2019-06-08T09:19:02.374Z,1.00
2019-06-08T09:20:03.277Z,1.10
2019-06-08T09:21:02.031Z,1.10
2019-06-08T09:22:01.202Z,0.90
2019-06-08T09:23:06.430Z,1.10
2019-06-08T09:24:03.456Z,1.00
2019-06-08T09:25:01.269Z,1.00
2019-06-08T09:26:05.782Z,0.90
2019-06-08T09:27:02.401Z,1.00
2019-06-08T09:28:01.257Z,0.80
2019-06-08T09:28:58.496Z,1.00
2019-06-08T09:30:00.736Z,0.80
2019-06-08T09:31:00.657Z,0.90
2019-06-08T09:32:00.412Z,0.90
2019-06-08T09:33:00.644Z,0.90
2019-06-08T09:34:08.529Z,0.80
2019-06-08T09:35:02.703Z,0.90
2019-06-08T09:36:02.407Z,0.90
2019-06-08T09:37:00.112Z,0.90
2019-06-08T09:38:01.083Z,0.80
2019-06-08T09:39:00.696Z,1.00
2019-06-08T09:39:59.014Z,0.70
2019-06-08T09:41:01.256Z,1.10
2019-06-08T09:42:01.924Z,0.90
2019-06-08T09:43:05.471Z,0.80
2019-06-08T09:44:02.190Z,0.90
2019-06-08T09:45:02.967Z,1.10
2019-06-08T09:46:00.561Z,1.20
2019-06-08T09:47:02.893Z,1.20
2019-06-08T09:48:01.602Z,1.10
2019-06-08T09:49:03.684Z,1.00
2019-06-08T09:50:03.270Z,1.20
2019-06-08T09:51:01.712Z,0.90
2019-06-08T09:52:00.343Z,0.80
2019-06-08T09:53:14.763Z,0.90
2019-06-08T09:54:02.647Z,0.90
2019-06-08T09:55:02.302Z,0.90
2019-06-08T09:56:02.351Z,1.00
2019-06-08T09:57:02.091Z,1.20
2019-06-08T09:58:03.955Z,1.30
2019-06-08T09:59:03.559Z,1.20
2019-06-08T10:00:02.195Z,1.20
2019-06-08T10:01:01.209Z,1.00
2019-06-08T10:02:05.151Z,1.10
2019-06-08T10:03:02.449Z,1.00
2019-06-08T10:04:00.820Z,0.90
2019-06-08T10:05:00.502Z,1.10
2019-06-08T10:06:01.544Z,1.00
2019-06-08T10:07:00.558Z,0.90
2019-06-08T10:08:00.473Z,1.00
2019-06-08T10:08:58.513Z,1.30
2019-06-08T10:10:00.361Z,1.00
2019-06-08T10:11:01.387Z,0.90
2019-06-08T10:12:01.298Z,1.10
2019-06-08T10:13:01.319Z,1.20
2019-06-08T10:14:02.653Z,1.00
2019-06-08T10:14:58.790Z,1.00
2019-06-08T10:16:01.939Z,1.00
2019-06-08T10:17:01.189Z,0.90
2019-06-08T10:17:58.924Z,1.20
2019-06-08T10:19:02.304Z,1.00
2019-06-08T10:20:00.632Z,1.00
2019-06-08T10:21:00.647Z,0.90
2019-06-08T10:21:58.838Z,1.40
2019-06-08T10:23:01.167Z,0.90
2019-06-08T10:24:01.003Z,0.90
2019-06-08T10:25:02.160Z,0.90
2019-06-08T10:26:01.377Z,1.10
2019-06-08T10:26:59.272Z,0.90
2019-06-08T10:28:02.818Z,1.10
2019-06-08T10:29:01.404Z,0.90
2019-06-08T10:29:59.984Z,1.10
2019-06-08T10:30:59.641Z,1.10
2019-06-08T10:31:57.720Z,1.20
2019-06-08T10:33:00.455Z,0.90
2019-06-08T10:34:01.528Z,0.90
2019-06-08T10:35:00.326Z,0.90
2019-06-08T10:36:01.508Z,1.00
2019-06-08T10:37:03.430Z,1.00
2019-06-08T10:38:02.610Z,0.80
2019-06-08T10:39:01.861Z,1.00
2019-06-08T10:40:01.921Z,1.00
2019-06-08T10:41:01.243Z,1.10
2019-06-08T10:42:01.109Z,1.10
2019-06-08T10:42:59.827Z,1.30
2019-06-08T10:43:59.109Z,0.90
2019-06-08T10:45:02.740Z,1.00
2019-06-08T10:46:05.145Z,1.10
2019-06-08T10:47:01.609Z,1.00
2019-06-08T10:47:59.387Z,1.00
2019-06-08T10:48:57.537Z,1.00
2019-06-08T10:50:01.638Z,0.90
2019-06-08T10:51:01.357Z,1.20
2019-06-08T10:52:01.603Z,0.90
2019-06-08T10:53:02.130Z,0.90
2019-06-08T10:53:59.860Z,1.30
2019-06-08T10:54:59.782Z,1.00
2019-06-08T10:55:58.233Z,1.00
2019-06-08T10:56:59.791Z,1.00
2019-06-08T10:57:58.435Z,1.00
2019-06-08T10:59:00.239Z,1.00
2019-06-08T10:59:57.925Z,1.00
2019-06-08T11:01:00.168Z,1.10
2019-06-08T11:02:00.955Z,1.00
2019-06-08T11:03:01.315Z,1.10
2019-06-08T11:03:58.413Z,1.20
2019-06-08T11:04:58.890Z,1.00
2019-06-08T11:06:00.731Z,0.90
2019-06-08T11:07:01.044Z,0.80
2019-06-08T11:07:59.325Z,1.00
2019-06-08T11:09:00.373Z,0.80
2019-06-08T11:09:58.707Z,1.10
2019-06-08T11:10:57.872Z,1.10
2019-06-08T11:11:58.338Z,0.90
2019-06-08T11:12:58.218Z,1.00
2019-06-08T11:14:00.051Z,0.80
2019-06-08T11:14:58.407Z,1.20
2019-06-08T11:15:58.645Z,1.20
2019-06-08T11:16:58.427Z,0.90
2019-06-08T11:18:01.328Z,1.10
2019-06-08T11:18:59.047Z,1.00
2019-06-08T11:20:00.489Z,1.10
2019-06-08T11:20:59.916Z,1.00
2019-06-08T11:21:58.053Z,1.00
2019-06-08T11:22:58.345Z,1.00
2019-06-08T11:24:07.343Z,1.20
2019-06-08T11:24:58.875Z,1.10
2019-06-08T11:25:59.517Z,1.00
2019-06-08T11:26:59.691Z,1.10
2019-06-08T11:27:58.674Z,0.90
2019-06-08T11:28:58.664Z,1.00
2019-06-08T11:29:57.558Z,1.10
2019-06-08T11:30:57.071Z,1.30
2019-06-08T11:31:58.637Z,1.20
2019-06-08T11:32:57.673Z,1.00
2019-06-08T11:33:58.888Z,1.00
2019-06-08T11:34:57.015Z,1.10
2019-06-08T11:35:58.146Z,1.30
2019-06-08T11:36:59.643Z,1.10
2019-06-08T11:37:58.524Z,1.00
2019-06-08T11:38:59.182Z,1.20
2019-06-08T11:39:57.662Z,1.00
2019-06-08T11:40:57.485Z,1.10
2019-06-08T11:41:58.756Z,1.00
2019-06-08T11:42:58.580Z,1.00
2019-06-08T11:43:59.577Z,1.20
2019-06-08T11:44:58.656Z,1.20
2019-06-08T11:45:58.404Z,1.10
2019-06-08T11:46:57.524Z,1.30
2019-06-08T11:47:58.376Z,0.90
2019-06-08T11:48:57.682Z,1.00
2019-06-08T11:49:57.690Z,1.20
2019-06-08T11:50:58.509Z,1.20
2019-06-08T11:51:58.352Z,1.40
2019-06-08T11:53:00.098Z,1.40
2019-06-08T11:53:59.263Z,1.10
2019-06-08T11:54:57.373Z,1.20
2019-06-08T11:55:58.595Z,1.10
2019-06-08T11:56:57.609Z,1.10
2019-06-08T11:57:58.583Z,1.20
2019-06-08T11:58:57.917Z,1.10
2019-06-08T11:59:58.470Z,1.20
2019-06-08T12:01:00.674Z,1.20
2019-06-08T12:01:58.638Z,1.30
2019-06-08T12:02:58.095Z,1.40
2019-06-08T12:03:57.982Z,1.20
2019-06-08T12:04:57.277Z,1.20
2019-06-08T12:05:58.310Z,1.40
2019-06-08T12:06:58.427Z,1.30
2019-06-08T12:07:57.820Z,1.40
2019-06-08T12:08:57.368Z,1.20
2019-06-08T12:09:58.352Z,1.10
2019-06-08T12:11:01.275Z,1.10
2019-06-08T12:11:58.110Z,1.20
2019-06-08T12:12:57.433Z,1.10
2019-06-08T12:13:58.474Z,1.20
2019-06-08T12:14:58.311Z,1.30
2019-06-08T12:15:58.752Z,1.30
2019-06-08T12:16:58.100Z,1.30
2019-06-08T12:17:58.648Z,1.10
2019-06-08T12:18:58.601Z,1.20
2019-06-08T12:19:57.725Z,1.40
2019-06-08T12:20:58.350Z,1.70
2019-06-08T12:21:58.012Z,2.70
2019-06-08T12:22:56.471Z,1.90
2019-06-08T12:23:56.449Z,1.10
2019-06-08T12:24:56.448Z,1.40
2019-06-08T12:25:56.504Z,1.00
2019-06-08T12:27:05.295Z,1.20
2019-06-08T12:27:58.523Z,1.40
2019-06-08T12:28:57.978Z,1.40
2019-06-08T12:29:58.605Z,1.30
2019-06-08T12:30:56.403Z,1.30
2019-06-08T12:31:58.403Z,1.70
2019-06-08T12:32:58.135Z,1.50
2019-06-08T12:33:58.619Z,1.40
2019-06-08T12:34:59.769Z,1.20
2019-06-08T12:35:57.867Z,1.30
2019-06-08T12:36:58.264Z,1.30
2019-06-08T12:37:58.112Z,1.20
2019-06-08T12:38:58.512Z,1.10
2019-06-08T12:39:57.943Z,1.40
2019-06-08T12:40:58.507Z,1.20
2019-06-08T12:41:58.269Z,1.40
2019-06-08T12:42:59.489Z,1.10
2019-06-08T12:43:58.077Z,1.30
2019-06-08T12:44:58.633Z,1.40
2019-06-08T12:45:58.039Z,1.50
2019-06-08T12:46:58.409Z,1.40
2019-06-08T12:47:56.189Z,1.20
2019-06-08T12:48:58.051Z,1.10
2019-06-08T12:49:58.295Z,1.50
2019-06-08T12:50:56.195Z,1.40
2019-06-08T12:51:58.108Z,1.40
2019-06-08T12:52:58.303Z,1.40
2019-06-08T12:53:59.854Z,1.70
2019-06-08T12:55:05.535Z,1.50
2019-06-08T12:55:57.910Z,1.30
2019-06-08T12:56:58.022Z,1.40
2019-06-08T12:57:58.113Z,1.40
2019-06-08T12:58:57.940Z,1.30
2019-06-08T12:59:59.805Z,1.30
2019-06-08T13:00:57.988Z,1.40
2019-06-08T13:01:58.536Z,1.50
2019-06-08T13:02:57.996Z,1.40
2019-06-08T13:03:58.098Z,1.20
2019-06-08T13:04:56.004Z,1.30
2019-06-08T13:05:57.558Z,1.40
2019-06-08T13:06:58.351Z,1.50
2019-06-08T13:07:55.979Z,1.30
2019-06-08T13:08:57.769Z,1.30
2019-06-08T13:09:58.175Z,1.30
2019-06-08T13:10:57.912Z,1.70
2019-06-08T13:11:57.186Z,1.50
2019-06-08T13:12:58.195Z,1.30
2019-06-08T13:13:55.908Z,1.30